Terminal Aerodrome Forecast
Issued by NWS Portland, OR

Home | Current Version | Previous Version | Text Only | Print | Product List | Glossary On
Versions: 1 2 3 4 5 6 7 8 9 10 11 12 13 14 15 16 17
000
FTUS46 KPQR 211124
TAFEUG
TAF
KEUG 211124Z 2112/2212 21003KT P6SM OVC150
     FM212300 24005KT P6SM -RA OVC040
     FM220200 26006KT P6SM -RA OVC025
     FM220700 23040KT P6SM -RA OVC050=

USA.gov is the U.S. government's official web portal to all federal, state and local government web resources and services.